sensor_id;sensor_type;location;lat;lon;timestamp;pressure;altitude;pressure_sealevel;temperature;humidity
75418;BME280;63997;52.112;5.420;2022-11-18T00:01:17;99622.56;;;7.09;91.31
75418;BME280;63997;52.112;5.420;2022-11-18T00:03:44;99626.63;;;7.06;91.31
75418;BME280;63997;52.112;5.420;2022-11-18T00:06:13;99626.63;;;7.06;91.51
75418;BME280;63997;52.112;5.420;2022-11-18T00:08:40;99634.88;;;7.05;91.38
75418;BME280;63997;52.112;5.420;2022-11-18T00:11:08;99637.38;;;7.01;91.50
75418;BME280;63997;52.112;5.420;2022-11-18T00:13:36;99636.31;;;7.02;91.49
75418;BME280;63997;52.112;5.420;2022-11-18T00:16:22;99643.00;;;7.00;91.56
75418;BME280;63997;52.112;5.420;2022-11-18T00:18:49;99648.97;;;6.97;91.56
75418;BME280;63997;52.112;5.420;2022-11-18T00:21:15;99651.91;;;6.95;91.44
75418;BME280;63997;52.112;5.420;2022-11-18T00:23:42;99657.06;;;6.92;91.49
75418;BME280;63997;52.112;5.420;2022-11-18T00:26:11;99657.06;;;6.92;91.56
75418;BME280;63997;52.112;5.420;2022-11-18T00:28:39;99658.47;;;6.89;91.71
75418;BME280;63997;52.112;5.420;2022-11-18T00:31:11;99665.31;;;6.90;91.68
75418;BME280;63997;52.112;5.420;2022-11-18T00:33:38;99663.75;;;6.89;91.58
75418;BME280;63997;52.112;5.420;2022-11-18T00:36:07;99663.75;;;6.89;91.75
75418;BME280;63997;52.112;5.420;2022-11-18T00:38:34;99664.09;;;6.87;91.71
75418;BME280;63997;52.112;5.420;2022-11-18T00:41:02;99665.53;;;6.85;91.84
75418;BME280;63997;52.112;5.420;2022-11-18T00:43:29;99670.81;;;6.85;91.92
75418;BME280;63997;52.112;5.420;2022-11-18T00:45:56;99673.75;;;6.83;91.88
75418;BME280;63997;52.112;5.420;2022-11-18T00:48:23;99675.63;;;6.83;91.95
75418;BME280;63997;52.112;5.420;2022-11-18T00:50:51;99673.31;;;6.81;91.82
75418;BME280;63997;52.112;5.420;2022-11-18T00:53:19;99693.69;;;6.81;92.09
75418;BME280;63997;52.112;5.420;2022-11-18T00:55:45;99680.47;;;6.81;92.07
75418;BME280;63997;52.112;5.420;2022-11-18T00:58:12;99696.31;;;6.81;92.21
75418;BME280;63997;52.112;5.420;2022-11-18T01:00:44;99694.78;;;6.80;92.09
75418;BME280;63997;52.112;5.420;2022-11-18T01:03:11;99701.13;;;6.79;92.09
75418;BME280;63997;52.112;5.420;2022-11-18T01:05:38;99692.13;;;6.80;92.20
75418;BME280;63997;52.112;5.420;2022-11-18T01:08:07;99702.25;;;6.78;91.82
75418;BME280;63997;52.112;5.420;2022-11-18T01:10:34;99696.38;;;6.72;91.77
75418;BME280;63997;52.112;5.420;2022-11-18T01:13:00;99697.03;;;6.69;91.76
75418;BME280;63997;52.112;5.420;2022-11-18T01:15:46;99704.47;;;6.67;91.84
75418;BME280;63997;52.112;5.420;2022-11-18T01:18:13;99714.28;;;6.67;91.66
75418;BME280;63997;52.112;5.420;2022-11-18T01:20:40;99719.88;;;6.65;91.83
75418;BME280;63997;52.112;5.420;2022-11-18T01:23:07;99713.84;;;6.65;91.99
75418;BME280;63997;52.112;5.420;2022-11-18T01:25:35;99723.31;;;6.66;92.00
75418;BME280;63997;52.112;5.420;2022-11-18T01:28:03;99722.38;;;6.61;91.72
75418;BME280;63997;52.112;5.420;2022-11-18T01:30:35;99721.50;;;6.57;91.78
75418;BME280;63997;52.112;5.420;2022-11-18T01:33:03;99735.78;;;6.56;91.86
75418;BME280;63997;52.112;5.420;2022-11-18T01:35:38;99737.97;;;6.54;91.69
75418;BME280;63997;52.112;5.420;2022-11-18T01:38:07;99736.44;;;6.53;91.76
75418;BME280;63997;52.112;5.420;2022-11-18T01:40:34;99742.81;;;6.52;91.72
75418;BME280;63997;52.112;5.420;2022-11-18T01:43:01;99746.06;;;6.49;91.58
75418;BME280;63997;52.112;5.420;2022-11-18T01:50:29;99751.53;;;6.44;91.95
75418;BME280;63997;52.112;5.420;2022-11-18T01:53:00;99756.38;;;6.42;91.92
75418;BME280;63997;52.112;5.420;2022-11-18T01:55:31;99754.81;;;6.41;91.76
75418;BME280;63997;52.112;5.420;2022-11-18T01:58:09;99756.38;;;6.42;91.80
75418;BME280;63997;52.112;5.420;2022-11-18T02:00:38;99758.56;;;6.40;91.88
75418;BME280;63997;52.112;5.420;2022-11-18T02:03:04;99754.34;;;6.39;91.98
75418;BME280;63997;52.112;5.420;2022-11-18T02:05:32;99759.94;;;6.38;91.74
75418;BME280;63997;52.112;5.420;2022-11-18T02:07:59;99765.56;;;6.36;91.94
75418;BME280;63997;52.112;5.420;2022-11-18T02:10:26;99763.69;;;6.36;92.02
75418;BME280;63997;52.112;5.420;2022-11-18T02:12:53;99760.88;;;6.33;91.70
75418;BME280;63997;52.112;5.420;2022-11-18T02:15:25;99776.28;;;6.31;91.71
75418;BME280;63997;52.112;5.420;2022-11-18T02:21:18;99771.50;;;6.24;91.74
75418;BME280;63997;52.112;5.420;2022-11-18T02:30:12;99785.63;;;6.20;91.87
75418;BME280;63997;52.112;5.420;2022-11-18T02:33:10;99781.75;;;6.17;91.94
75418;BME280;63997;52.112;5.420;2022-11-18T02:35:53;99783.94;;;6.15;92.02
75418;BME280;63997;52.112;5.420;2022-11-18T02:38:26;99778.66;;;6.15;92.11
75418;BME280;63997;52.112;5.420;2022-11-18T02:41:21;99786.25;;;6.17;92.32
75418;BME280;63997;52.112;5.420;2022-11-18T02:43:52;99785.81;;;6.15;92.34
75418;BME280;63997;52.112;5.420;2022-11-18T02:46:29;99787.03;;;6.17;92.76
75418;BME280;63997;52.112;5.420;2022-11-18T02:49:00;99795.44;;;6.19;92.72
75418;BME280;63997;52.112;5.420;2022-11-18T02:51:28;99789.06;;;6.20;92.88
75418;BME280;63997;52.112;5.420;2022-11-18T02:53:59;99795.56;;;6.23;92.85
75418;BME280;63997;52.112;5.420;2022-11-18T02:56:28;99790.75;;;6.25;92.82
75418;BME280;63997;52.112;5.420;2022-11-18T02:58:54;99794.94;;;6.26;92.74
75418;BME280;63997;52.112;5.420;2022-11-18T03:01:25;99799.59;;;6.29;92.87
75418;BME280;63997;52.112;5.420;2022-11-18T03:03:54;99805.19;;;6.27;92.66
75418;BME280;63997;52.112;5.420;2022-11-18T03:06:37;99804.88;;;6.29;92.88
75418;BME280;63997;52.112;5.420;2022-11-18T03:11:39;99813.41;;;6.34;92.96
75418;BME280;63997;52.112;5.420;2022-11-18T03:20:03;99818.03;;;6.38;93.08
75418;BME280;63997;52.112;5.420;2022-11-18T03:22:38;99826.41;;;6.40;93.12
75418;BME280;63997;52.112;5.420;2022-11-18T03:25:13;99829.53;;;6.42;92.97
75418;BME280;63997;52.112;5.420;2022-11-18T03:30:22;99830.63;;;6.41;93.30
75418;BME280;63997;52.112;5.420;2022-11-18T03:32:55;99837.47;;;6.42;93.14
75418;BME280;63997;52.112;5.420;2022-11-18T03:35:25;99832.63;;;6.44;93.30
75418;BME280;63997;52.112;5.420;2022-11-18T03:38:01;99835.75;;;6.46;93.39
75418;BME280;63997;52.112;5.420;2022-11-18T03:40:30;99838.84;;;6.48;93.57
75418;BME280;63997;52.112;5.420;2022-11-18T03:43:09;99846.44;;;6.49;93.37
75418;BME280;63997;52.112;5.420;2022-11-18T03:45:43;99845.34;;;6.50;93.36
75418;BME280;63997;52.112;5.420;2022-11-18T03:48:14;99851.09;;;6.52;93.56
75418;BME280;63997;52.112;5.420;2022-11-18T03:50:47;99854.19;;;6.54;93.65
75418;BME280;63997;52.112;5.420;2022-11-18T03:53:16;99855.72;;;6.55;93.74
75418;BME280;63997;52.112;5.420;2022-11-18T03:55:46;99868.31;;;6.58;93.80
75418;BME280;63997;52.112;5.420;2022-11-18T03:58:20;99867.22;;;6.59;93.90
75418;BME280;63997;52.112;5.420;2022-11-18T04:00:51;99868.31;;;6.58;93.68
75418;BME280;63997;52.112;5.420;2022-11-18T04:03:19;99868.66;;;6.57;93.60
75418;BME280;63997;52.112;5.420;2022-11-18T04:05:48;99870.47;;;6.56;93.57
75418;BME280;63997;52.112;5.420;2022-11-18T04:08:21;99877.19;;;6.54;93.35
75418;BME280;63997;52.112;5.420;2022-11-18T04:13:34;99888.56;;;6.46;93.45
75418;BME280;63997;52.112;5.420;2022-11-18T04:16:02;99886.22;;;6.44;93.41
75418;BME280;63997;52.112;5.420;2022-11-18T04:18:28;99888.41;;;6.42;93.07
75418;BME280;63997;52.112;5.420;2022-11-18T04:20:58;99892.75;;;6.38;93.18
75418;BME280;63997;52.112;5.420;2022-11-18T04:23:24;99893.41;;;6.35;93.19
75418;BME280;63997;52.112;5.420;2022-11-18T04:25:53;99897.75;;;6.31;93.13
75418;BME280;63997;52.112;5.420;2022-11-18T04:28:19;99892.47;;;6.31;93.21
75418;BME280;63997;52.112;5.420;2022-11-18T04:30:45;99895.72;;;6.28;93.16
75418;BME280;63997;52.112;5.420;2022-11-18T04:33:12;99902.72;;;6.24;93.15
75418;BME280;63997;52.112;5.420;2022-11-18T04:35:38;99908.00;;;6.24;93.11
75418;BME280;63997;52.112;5.420;2022-11-18T04:38:05;99907.53;;;6.22;92.97
75418;BME280;63997;52.112;5.420;2022-11-18T04:40:31;99916.38;;;6.17;92.73
75418;BME280;63997;52.112;5.420;2022-11-18T04:42:58;99909.88;;;6.15;92.73
75418;BME280;63997;52.112;5.420;2022-11-18T04:45:24;99917.78;;;6.15;92.81
75418;BME280;63997;52.112;5.420;2022-11-18T04:47:50;99921.03;;;6.12;92.70
75418;BME280;63997;52.112;5.420;2022-11-18T04:50:17;99917.94;;;6.09;92.62
75418;BME280;63997;52.112;5.420;2022-11-18T04:52:43;99926.50;;;6.06;92.59
75418;BME280;63997;52.112;5.420;2022-11-18T04:55:10;99921.50;;;6.05;92.73
75418;BME280;63997;52.112;5.420;2022-11-18T04:57:36;99926.00;;;6.04;92.75
75418;BME280;63997;52.112;5.420;2022-11-18T05:00:03;99926.00;;;6.04;92.72
75418;BME280;63997;52.112;5.420;2022-11-18T05:02:29;99929.13;;;6.06;93.13
75418;BME280;63997;52.112;5.420;2022-11-18T05:04:56;99929.91;;;6.07;93.17
75418;BME280;63997;52.112;5.420;2022-11-18T05:07:22;99937.06;;;6.06;93.22
75418;BME280;63997;52.112;5.420;2022-11-18T05:09:48;99945.59;;;6.03;93.06
75418;BME280;63997;52.112;5.420;2022-11-18T05:12:15;99939.06;;;6.01;92.99
75418;BME280;63997;52.112;5.420;2022-11-18T05:15:00;99951.47;;;6.00;93.09
75418;BME280;63997;52.112;5.420;2022-11-18T05:17:26;99943.56;;;6.00;93.20
75418;BME280;63997;52.112;5.420;2022-11-18T05:19:53;99947.75;;;6.01;93.34
75418;BME280;63997;52.112;5.420;2022-11-18T05:22:20;99941.72;;;6.01;93.31
75418;BME280;63997;52.112;5.420;2022-11-18T05:24:46;99954.09;;;6.00;93.25
75418;BME280;63997;52.112;5.420;2022-11-18T05:27:13;99954.44;;;5.99;93.29
75418;BME280;63997;52.112;5.420;2022-11-18T05:29:39;99954.44;;;5.99;93.48
75418;BME280;63997;52.112;5.420;2022-11-18T05:32:06;99962.03;;;6.00;93.42
75418;BME280;63997;52.112;5.420;2022-11-18T05:34:32;99971.97;;;6.03;93.64
75418;BME280;63997;52.112;5.420;2022-11-18T05:36:59;99975.72;;;6.02;93.50
75418;BME280;63997;52.112;5.420;2022-11-18T05:39:25;99970.88;;;6.04;93.50
75418;BME280;63997;52.112;5.420;2022-11-18T05:41:52;99975.84;;;6.06;93.63
75418;BME280;63997;52.112;5.420;2022-11-18T05:44:37;99984.56;;;6.06;93.74
75418;BME280;63997;52.112;5.420;2022-11-18T05:47:03;99991.69;;;6.06;93.69
75418;BME280;63997;52.112;5.420;2022-11-18T05:49:29;99987.22;;;6.06;93.89
75418;BME280;63997;52.112;5.420;2022-11-18T05:51:55;99987.34;;;6.01;93.37
75418;BME280;63997;52.112;5.420;2022-11-18T05:54:22;99981.59;;;5.99;93.52
75418;BME280;63997;52.112;5.420;2022-11-18T05:56:48;99986.88;;;5.99;93.58
75418;BME280;63997;52.112;5.420;2022-11-18T05:59:15;99989.06;;;5.97;93.57
75418;BME280;63997;52.112;5.420;2022-11-18T06:02:11;99993.38;;;5.93;93.42
75418;BME280;63997;52.112;5.420;2022-11-18T06:04:44;99993.22;;;5.90;93.53
75418;BME280;63997;52.112;5.420;2022-11-18T06:07:16;99994.59;;;5.87;93.35
75418;BME280;63997;52.112;5.420;2022-11-18T06:09:47;99995.22;;;5.84;93.17
75418;BME280;63997;52.112;5.420;2022-11-18T06:12:19;100004.19;;;5.83;93.25
75418;BME280;63997;52.112;5.420;2022-11-18T06:14:51;100003.28;;;5.79;93.10
75418;BME280;63997;52.112;5.420;2022-11-18T06:17:38;100009.59;;;5.78;93.05
75418;BME280;63997;52.112;5.420;2022-11-18T06:20:07;100008.06;;;5.77;93.08
75418;BME280;63997;52.112;5.420;2022-11-18T06:22:34;100016.59;;;5.74;93.14
75418;BME280;63997;52.112;5.420;2022-11-18T06:25:01;100021.09;;;5.73;93.22
75418;BME280;63997;52.112;5.420;2022-11-18T06:27:28;100033.81;;;5.71;93.17
75418;BME280;63997;52.112;5.420;2022-11-18T06:29:55;100031.03;;;5.68;93.41
75418;BME280;63997;52.112;5.420;2022-11-18T06:32:21;100031.16;;;5.63;93.11
75418;BME280;63997;52.112;5.420;2022-11-18T06:34:48;100037.81;;;5.60;93.20
75418;BME280;63997;52.112;5.420;2022-11-18T06:37:16;100037.34;;;5.58;93.19
75418;BME280;63997;52.112;5.420;2022-11-18T06:39:43;100046.63;;;5.55;93.31
75418;BME280;63997;52.112;5.420;2022-11-18T06:42:09;100053.47;;;5.56;93.31
75418;BME280;63997;52.112;5.420;2022-11-18T06:44:36;100043.38;;;5.58;93.73
75418;BME280;63997;52.112;5.420;2022-11-18T06:47:02;100050.22;;;5.60;93.59
75418;BME280;63997;52.112;5.420;2022-11-18T06:49:29;100059.22;;;5.58;93.55
75418;BME280;63997;52.112;5.420;2022-11-18T06:51:55;100063.72;;;5.58;93.58
75418;BME280;63997;52.112;5.420;2022-11-18T06:54:22;100069.31;;;5.56;93.35
75418;BME280;63997;52.112;5.420;2022-11-18T06:56:48;100070.66;;;5.54;93.54
75418;BME280;63997;52.112;5.420;2022-11-18T06:59:15;100075.16;;;5.53;93.62
75418;BME280;63997;52.112;5.420;2022-11-18T07:01:48;100080.91;;;5.55;93.55
75418;BME280;63997;52.112;5.420;2022-11-18T07:04:14;100086.50;;;5.54;93.60
75418;BME280;63997;52.112;5.420;2022-11-18T07:06:40;100083.09;;;5.53;93.71
75418;BME280;63997;52.112;5.420;2022-11-18T07:09:07;100093.31;;;5.55;93.83
75418;BME280;63997;52.112;5.420;2022-11-18T07:11:33;100087.75;;;5.56;93.98
75418;BME280;63997;52.112;5.420;2022-11-18T07:14:00;100090.41;;;5.56;93.81
75418;BME280;63997;52.112;5.420;2022-11-18T07:16:28;100089.00;;;5.59;93.93
75418;BME280;63997;52.112;5.420;2022-11-18T07:18:56;100098.00;;;5.58;93.85
75418;BME280;63997;52.112;5.420;2022-11-18T07:21:27;100099.56;;;5.59;93.90
75418;BME280;63997;52.112;5.420;2022-11-18T07:23:55;100107.66;;;5.63;93.85
75418;BME280;63997;52.112;5.420;2022-11-18T07:26:22;100107.03;;;5.66;94.02
75418;BME280;63997;52.112;5.420;2022-11-18T07:28:48;100114.34;;;5.69;93.94
75418;BME280;63997;52.112;5.420;2022-11-18T07:31:19;100116.84;;;5.74;94.05
75418;BME280;63997;52.112;5.420;2022-11-18T07:33:46;100122.28;;;5.77;94.20
75418;BME280;63997;52.112;5.420;2022-11-18T07:36:18;100125.28;;;5.84;94.20
75418;BME280;63997;52.112;5.420;2022-11-18T07:38:45;100129.63;;;5.89;94.29
75418;BME280;63997;52.112;5.420;2022-11-18T07:41:23;100137.16;;;5.96;94.33
75418;BME280;63997;52.112;5.420;2022-11-18T07:43:50;100148.34;;;6.01;94.38
75418;BME280;63997;52.112;5.420;2022-11-18T07:46:25;100147.13;;;6.07;94.45
75418;BME280;63997;52.112;5.420;2022-11-18T07:48:54;100153.81;;;6.14;94.61
75418;BME280;63997;52.112;5.420;2022-11-18T07:51:24;100148.88;;;6.21;94.54
75418;BME280;63997;52.112;5.420;2022-11-18T07:53:51;100152.59;;;6.28;94.67
75418;BME280;63997;52.112;5.420;2022-11-18T07:56:18;100157.78;;;6.42;94.74
75418;BME280;63997;52.112;5.420;2022-11-18T07:58:45;100159.19;;;6.48;94.59
75418;BME280;63997;52.112;5.420;2022-11-18T08:01:15;100157.63;;;6.56;94.86
75418;BME280;63997;52.112;5.420;2022-11-18T08:03:42;100165.75;;;6.68;94.99
75418;BME280;63997;52.112;5.420;2022-11-18T08:06:11;100170.72;;;6.78;94.78
75418;BME280;63997;52.112;5.420;2022-11-18T08:08:38;100171.97;;;6.89;94.95
75418;BME280;63997;52.112;5.420;2022-11-18T08:11:07;100174.19;;;6.96;94.85
75418;BME280;63997;52.112;5.420;2022-11-18T08:13:34;100176.22;;;7.08;94.94
75418;BME280;63997;52.112;5.420;2022-11-18T08:16:01;100178.47;;;7.61;95.16
75418;BME280;63997;52.112;5.420;2022-11-18T08:18:30;100189.13;;;7.91;94.47
75418;BME280;63997;52.112;5.420;2022-11-18T08:21:02;100187.75;;;7.85;93.89
75418;BME280;63997;52.112;5.420;2022-11-18T08:23:28;100183.53;;;7.84;93.44
75418;BME280;63997;52.112;5.420;2022-11-18T08:26:02;100200.06;;;7.81;93.29
75418;BME280;63997;52.112;5.420;2022-11-18T08:28:29;100192.75;;;7.78;92.75
75418;BME280;63997;52.112;5.420;2022-11-18T08:30:56;100194.63;;;7.77;92.90
75418;BME280;63997;52.112;5.420;2022-11-18T08:33:22;100201.13;;;7.80;92.94
75418;BME280;63997;52.112;5.420;2022-11-18T08:35:49;100200.06;;;7.81;92.67
75418;BME280;63997;52.112;5.420;2022-11-18T08:38:16;100206.91;;;7.82;92.66
75418;BME280;63997;52.112;5.420;2022-11-18T08:40:46;100204.72;;;7.84;92.71
75418;BME280;63997;52.112;5.420;2022-11-18T08:43:13;100210.94;;;7.88;92.75
75418;BME280;63997;52.112;5.420;2022-11-18T08:45:40;100213.75;;;7.91;92.51
75418;BME280;63997;52.112;5.420;2022-11-18T08:48:07;100221.81;;;7.95;92.29
75418;BME280;63997;52.112;5.420;2022-11-18T08:50:33;100212.16;;;7.99;92.31
75418;BME280;63997;52.112;5.420;2022-11-18T08:53:00;100213.38;;;8.02;92.22
75418;BME280;63997;52.112;5.420;2022-11-18T08:55:26;100217.72;;;8.06;92.05
75418;BME280;63997;52.112;5.420;2022-11-18T08:57:52;100221.31;;;8.10;91.80
75418;BME280;63997;52.112;5.420;2022-11-18T09:00:19;100222.69;;;8.16;91.89
75418;BME280;63997;52.112;5.420;2022-11-18T09:02:45;100219.38;;;8.28;91.71
75418;BME280;63997;52.112;5.420;2022-11-18T09:05:12;100228.50;;;8.48;91.01
75418;BME280;63997;52.112;5.420;2022-11-18T09:07:38;100227.66;;;8.65;90.83
75418;BME280;63997;52.112;5.420;2022-11-18T09:10:05;100235.09;;;8.71;90.08
75418;BME280;63997;52.112;5.420;2022-11-18T09:12:32;100236.81;;;8.67;89.99
75418;BME280;63997;52.112;5.420;2022-11-18T09:14:58;100237.78;;;8.63;90.13
75418;BME280;63997;52.112;5.420;2022-11-18T09:17:44;100245.47;;;8.56;90.11
75418;BME280;63997;52.112;5.420;2022-11-18T09:20:11;100252.03;;;8.50;90.28
75418;BME280;63997;52.112;5.420;2022-11-18T09:22:37;100249.72;;;8.48;90.36
75418;BME280;63997;52.112;5.420;2022-11-18T09:25:05;100253.13;;;8.48;90.52
75418;BME280;63997;52.112;5.420;2022-11-18T09:27:32;100256.56;;;8.49;90.45
75418;BME280;63997;52.112;5.420;2022-11-18T09:29:58;100263.41;;;8.50;90.40
75418;BME280;63997;52.112;5.420;2022-11-18T09:32:25;100261.84;;;8.49;90.64
75418;BME280;63997;52.112;5.420;2022-11-18T09:34:51;100262.47;;;8.46;90.47
75418;BME280;63997;52.112;5.420;2022-11-18T09:37:18;100261.38;;;8.47;90.72
75418;BME280;63997;52.112;5.420;2022-11-18T09:39:44;100273.38;;;8.53;90.79
75418;BME280;63997;52.112;5.420;2022-11-18T09:45:22;100275.47;;;8.68;90.41
75418;BME280;63997;52.112;5.420;2022-11-18T09:47:51;100269.56;;;8.71;90.11
75418;BME280;63997;52.112;5.420;2022-11-18T09:50:21;100282.81;;;8.71;90.10
75418;BME280;63997;52.112;5.420;2022-11-18T09:53:23;100272.66;;;8.73;90.11
75418;BME280;63997;52.112;5.420;2022-11-18T09:55:51;100276.16;;;8.86;89.10
75418;BME280;63997;52.112;5.420;2022-11-18T09:58:23;100283.75;;;8.96;88.86
75418;BME280;63997;52.112;5.420;2022-11-18T10:00:51;100294.25;;;8.93;88.59
75418;BME280;63997;52.112;5.420;2022-11-18T10:03:28;100301.72;;;8.91;88.65
75418;BME280;63997;52.112;5.420;2022-11-18T10:06:00;100291.59;;;8.93;88.30
75418;BME280;63997;52.112;5.420;2022-11-18T10:11:17;100307.97;;;8.86;88.72
75418;BME280;63997;52.112;5.420;2022-11-18T10:14:15;100305.66;;;8.85;88.67
75418;BME280;63997;52.112;5.420;2022-11-18T10:17:06;100320.78;;;8.84;88.90
75418;BME280;63997;52.112;5.420;2022-11-18T10:24:52;100326.94;;;8.67;88.31
75418;BME280;63997;52.112;5.420;2022-11-18T10:27:19;100326.00;;;8.63;88.66
75418;BME280;63997;52.112;5.420;2022-11-18T10:29:54;100327.88;;;8.63;88.92
75418;BME280;63997;52.112;5.420;2022-11-18T10:32:22;100334.28;;;8.70;89.61
75418;BME280;63997;52.112;5.420;2022-11-18T10:34:54;100330.16;;;8.82;89.78
75418;BME280;63997;52.112;5.420;2022-11-18T10:37:32;100326.84;;;8.93;89.70
75418;BME280;63997;52.112;5.420;2022-11-18T10:40:27;100335.66;;;9.06;89.64
75418;BME280;63997;52.112;5.420;2022-11-18T10:42:55;100335.63;;;9.15;89.47
75418;BME280;63997;52.112;5.420;2022-11-18T10:48:08;100332.31;;;9.18;88.86
75418;BME280;63997;52.112;5.420;2022-11-18T10:53:04;100337.06;;;9.33;89.18
75418;BME280;63997;52.112;5.420;2022-11-18T10:55:32;100335.09;;;9.42;88.54
75418;BME280;63997;52.112;5.420;2022-11-18T10:58:02;100331.47;;;9.47;88.57
75418;BME280;63997;52.112;5.420;2022-11-18T11:00:42;100340.59;;;9.58;88.60
75418;BME280;63997;52.112;5.420;2022-11-18T11:03:24;100341.47;;;9.71;88.95
75418;BME280;63997;52.112;5.420;2022-11-18T11:08:51;100348.44;;;9.75;87.81
75418;BME280;63997;52.112;5.420;2022-11-18T11:11:26;100344.69;;;9.76;87.90
75418;BME280;63997;52.112;5.420;2022-11-18T11:14:00;100353.75;;;9.75;87.17
75418;BME280;63997;52.112;5.420;2022-11-18T11:16:28;100353.75;;;9.75;87.19
75418;BME280;63997;52.112;5.420;2022-11-18T11:18:59;100350.66;;;9.73;87.52
75418;BME280;63997;52.112;5.420;2022-11-18T11:21:25;100348.44;;;9.75;87.27
75418;BME280;63997;52.112;5.420;2022-11-18T11:23:53;100352.13;;;9.83;87.53
75418;BME280;63997;52.112;5.420;2022-11-18T11:26:45;100351.94;;;9.88;87.40
75418;BME280;63997;52.112;5.420;2022-11-18T11:29:55;100356.59;;;9.91;87.68
75418;BME280;63997;52.112;5.420;2022-11-18T11:32:57;100354.44;;;10.05;87.81
75418;BME280;63997;52.112;5.420;2022-11-18T11:43:13;100358.19;;;10.38;87.10
75418;BME280;63997;52.112;5.420;2022-11-18T11:48:46;100364.66;;;10.49;85.95
75418;BME280;63997;52.112;5.420;2022-11-18T11:51:46;100366.88;;;10.47;86.03
75418;BME280;63997;52.112;5.420;2022-11-18T11:57:32;100367.88;;;10.54;85.56
75418;BME280;63997;52.112;5.420;2022-11-18T12:00:10;100360.78;;;10.46;85.28
75418;BME280;63997;52.112;5.420;2022-11-18T12:05:39;100367.41;;;10.40;84.94
75418;BME280;63997;52.112;5.420;2022-11-18T12:08:23;100370.41;;;10.39;84.75
75418;BME280;63997;52.112;5.420;2022-11-18T12:10:53;100374.94;;;10.38;85.38
75418;BME280;63997;52.112;5.420;2022-11-18T12:13:31;100386.22;;;10.35;84.40
75418;BME280;63997;52.112;5.420;2022-11-18T12:16:24;100382.66;;;10.31;84.43
75418;BME280;63997;52.112;5.420;2022-11-18T12:19:14;100380.06;;;10.22;84.50
75418;BME280;63997;52.112;5.420;2022-11-18T12:26:45;100389.16;;;10.21;84.50
75418;BME280;63997;52.112;5.420;2022-11-18T12:29:21;100403.34;;;10.25;84.88
75418;BME280;63997;52.112;5.420;2022-11-18T12:31:56;100397.97;;;10.34;85.63
75418;BME280;63997;52.112;5.420;2022-11-18T12:34:38;100397.09;;;10.42;85.19
75418;BME280;63997;52.112;5.420;2022-11-18T12:40:01;100402.53;;;10.46;84.61
75418;BME280;63997;52.112;5.420;2022-11-18T12:45:47;100408.75;;;10.50;84.86
75418;BME280;63997;52.112;5.420;2022-11-18T12:50:58;100408.28;;;10.48;84.06
75418;BME280;63997;52.112;5.420;2022-11-18T12:53:36;100408.44;;;10.51;84.12
75418;BME280;63997;52.112;5.420;2022-11-18T12:56:20;100412.28;;;10.54;84.27
75418;BME280;63997;52.112;5.420;2022-11-18T12:58:52;100413.41;;;10.53;84.19
75418;BME280;63997;52.112;5.420;2022-11-18T13:01:25;100411.84;;;10.52;84.15
75418;BME280;63997;52.112;5.420;2022-11-18T13:04:08;100411.19;;;10.55;83.83
75418;BME280;63997;52.112;5.420;2022-11-18T13:06:36;100418.06;;;10.56;83.74
75418;BME280;63997;52.112;5.420;2022-11-18T13:09:11;100420.75;;;10.56;83.29
75418;BME280;63997;52.112;5.420;2022-11-18T13:11:46;100421.94;;;10.58;83.61
75418;BME280;63997;52.112;5.420;2022-11-18T13:14:26;100422.63;;;10.55;83.42
75418;BME280;63997;52.112;5.420;2022-11-18T13:17:29;100429.13;;;10.46;83.60
75418;BME280;63997;52.112;5.420;2022-11-18T13:20:29;100426.22;;;10.39;83.87
75418;BME280;63997;52.112;5.420;2022-11-18T13:25:46;100432.75;;;10.41;84.27
75418;BME280;63997;52.112;5.420;2022-11-18T13:28:31;100425.91;;;10.40;84.34
75418;BME280;63997;52.112;5.420;2022-11-18T13:31:14;100430.78;;;10.38;84.49
75418;BME280;63997;52.112;5.420;2022-11-18T13:33:42;100433.44;;;10.38;84.43
75418;BME280;63997;52.112;5.420;2022-11-18T13:39:04;100443.41;;;10.41;84.25
75418;BME280;63997;52.112;5.420;2022-11-18T13:41:33;100447.94;;;10.41;84.25
75418;BME280;63997;52.112;5.420;2022-11-18T13:46:40;100450.16;;;10.39;84.50
75418;BME280;63997;52.112;5.420;2022-11-18T13:49:13;100453.25;;;10.41;84.95
75418;BME280;63997;52.112;5.420;2022-11-18T13:51:42;100452.13;;;10.42;84.62
75418;BME280;63997;52.112;5.420;2022-11-18T13:54:19;100453.88;;;10.38;84.75
75418;BME280;63997;52.112;5.420;2022-11-18T13:56:47;100454.22;;;10.36;84.60
75418;BME280;63997;52.112;5.420;2022-11-18T13:59:17;100456.44;;;10.34;84.82
75418;BME280;63997;52.112;5.420;2022-11-18T14:01:45;100459.44;;;10.32;84.81
75418;BME280;63997;52.112;5.420;2022-11-18T14:04:21;100455.53;;;10.30;85.30
75418;BME280;63997;52.112;5.420;2022-11-18T14:06:48;100462.59;;;10.26;85.26
75418;BME280;63997;52.112;5.420;2022-11-18T14:09:25;100448.25;;;10.18;85.53
75418;BME280;63997;52.112;5.420;2022-11-18T14:12:02;100446.91;;;10.12;85.35
75418;BME280;63997;52.112;5.420;2022-11-18T14:14:33;100450.38;;;10.04;85.06
75418;BME280;63997;52.112;5.420;2022-11-18T14:17:25;100458.00;;;9.93;85.27
75418;BME280;63997;52.112;5.420;2022-11-18T14:19:54;100458.03;;;9.85;85.43
75418;BME280;63997;52.112;5.420;2022-11-18T14:22:23;100458.56;;;9.78;85.64
75418;BME280;63997;52.112;5.420;2022-11-18T14:27:39;100465.47;;;9.70;85.94
75418;BME280;63997;52.112;5.420;2022-11-18T14:30:38;100468.78;;;9.67;86.37
75418;BME280;63997;52.112;5.420;2022-11-18T14:35:31;100478.47;;;9.63;86.80
75418;BME280;63997;52.112;5.420;2022-11-18T14:38:00;100474.59;;;9.61;86.86
75418;BME280;63997;52.112;5.420;2022-11-18T14:40:59;100487.41;;;9.59;87.06
75418;BME280;63997;52.112;5.420;2022-11-18T14:43:26;100471.34;;;9.55;87.08
75418;BME280;63997;52.112;5.420;2022-11-18T14:45:56;100476.66;;;9.55;87.36
75418;BME280;63997;52.112;5.420;2022-11-18T14:48:24;100485.72;;;9.54;87.44
75418;BME280;63997;52.112;5.420;2022-11-18T14:50:58;100491.34;;;9.52;87.51
75418;BME280;63997;52.112;5.420;2022-11-18T14:53:24;100489.00;;;9.51;87.44
75418;BME280;63997;52.112;5.420;2022-11-18T14:55:52;100490.09;;;9.50;87.76